Milan, New Mexico
Current Conditions -  °F | °C
As of 8:15 PM on Thursday 18 Dec 2014 (Local Time) from KGNT Reporting Station
Broken Clouds Broken Clouds  
Wind Chill: 20°   Ceiling: 12000
Heat Index: 27°   Visibility: 10mi
Dew Point: 26°   Wind: 7mph
Humidity: 94%   Direction: 320°NW
Pressure: 30.17"   Gusts: NA
Location:  35.17°N, 107.89°W
Report Text: KGNT 190315Z AUTO 32006KT 10SM SCT070 BKN120 M03/M03 A3017 RMK AO2 T10271035
Loading
Personal Weather Stations






























Interactive Weather Map New forecast layout! Learn more

10-Day Weather Forecast

Advertisements
Track Severe Weather on mobile